Kennedy Shores, Texas
Current Conditions -  °F | °C
As of 8:53 AM on Thursday 23 Oct 2014 (Local Time) from KBRO Reporting Station
Few Clouds Few Clouds  
Wind Chill: 73°   Ceiling: Unl
Heat Index: 73°   Visibility: 9mi
Dew Point: 69°   Wind: 5mph
Humidity: 87%   Direction: 330°NNW
Pressure: 30.05"   Gusts: NA
Location:  26.0002°N, 97.5729°W
Report Text: KBRO 231353Z 33004KT 9SM FEW035 23/21 A3005 RMK AO2 SLP176 T02280206
Loading
Personal Weather Stations






























Interactive Weather Map
Tropical Storm Tracking
New forecast layout! Learn more

10-Day Weather Forecast

Advertisements
Track Severe Weather on mobile